Time;durP1;ratioP1;P1;durP2;ratioP2;P2;SDS_P1;SDS_P2;PMS_P1;PMS_P2;Temp;Humidity;BMP_temperature;BMP_pressure;BME280_temperature;BME280_humidity;BME280_pressure;Samples;Min_cycle;Max_cycle;Signal;HPM_P1;HPM_P2
2024/01/08 00:11:00;;;;;;;3.20;2.90;;;;;;;;;;5003647;28;20453;-84
2024/01/08 00:17:40;;;;;;;3.40;3.10;;;;;;;;;;4967507;28;20483;-84
2024/01/08 00:20:59;;;;;;;4.23;3.40;;;;;;;;;;4919157;29;20506;-84
2024/01/08 00:24:10;;;;;;;3.50;2.90;;;;;;;;;;4892617;29;20461;-86
2024/01/08 00:27:00;;;;;;;3.07;2.80;;;;;;;;;;4915358;29;20876;-87
2024/01/08 00:29:46;;;;;;;3.37;2.83;;;;;;;;;;4907475;29;20467;-86
2024/01/08 00:32:50;;;;;;;3.47;2.90;;;;;;;;;;4877332;29;20454;-85
2024/01/08 00:35:50;;;;;;;;;;;;;;;;;;;;;
2024/01/08 00:39:29;;;;;;;;;;;;;;;;;;;;;
2024/01/08 00:42:33;;;;;;;3.67;2.93;;;;;;;;;;4944136;28;20483;-87
2024/01/08 00:45:11;;;;;;;3.80;2.90;;;;;;;;;;4933587;29;20514;-86
2024/01/08 00:48:01;;;;;;;3.40;3.10;;;;;;;;;;4942556;29;20498;-86
2024/01/08 00:51:02;;;;;;;2.70;2.50;;;;;;;;;;4945532;29;20454;-85
2024/01/08 00:53:48;;;;;;;3.17;2.87;;;;;;;;;;4927014;29;21067;-84
2024/01/08 00:56:30;;;;;;;4.77;3.40;;;;;;;;;;4923543;29;20471;-86
2024/01/08 00:59:22;;;;;;;3.20;2.90;;;;;;;;;;5007853;28;20566;-84
2024/01/08 01:02:10;;;;;;;3.03;2.83;;;;;;;;;;5021742;28;20458;-85
2024/01/08 01:08:46;;;;;;;;;;;;;;;;;;;;;
2024/01/08 01:11:43;;;;;;;2.80;2.50;;;;;;;;;;5010014;28;21190;-85
2024/01/08 01:14:21;;;;;;;4.73;3.40;;;;;;;;;;5013619;28;20486;-84
2024/01/08 01:17:17;;;;;;;3.17;2.90;;;;;;;;;;4998721;28;20566;-84
2024/01/08 01:23:05;;;;;;;3.57;3.17;;;;;;;;;;5015251;28;20472;-84
2024/01/08 01:26:02;;;;;;;3.57;2.83;;;;;;;;;;5010331;28;20510;-86
2024/01/08 01:28:54;;;;;;;3.83;3.33;;;;;;;;;;5088361;23;20487;-86
2024/01/08 01:34:54;;;;;;;4.30;3.67;;;;;;;;;;5030210;28;20520;-85
2024/01/08 01:37:47;;;;;;;4.00;3.60;;;;;;;;;;5003681;28;20494;-87
2024/01/08 01:40:37;;;;;;;4.87;3.40;;;;;;;;;;5034965;28;20454;-88
2024/01/08 01:43:25;;;;;;;3.50;3.20;;;;;;;;;;5030965;28;20465;-87
2024/01/08 01:46:11;;;;;;;4.97;3.43;;;;;;;;;;5050314;28;20450;-83
2024/01/08 01:49:14;;;;;;;4.03;3.53;;;;;;;;;;5050653;28;20474;-84
2024/01/08 01:52:01;;;;;;;4.40;4.00;;;;;;;;;;5033819;28;20439;-85
2024/01/08 01:54:40;;;;;;;3.50;3.20;;;;;;;;;;5035414;28;20483;-83
2024/01/08 01:57:24;;;;;;;5.80;4.07;;;;;;;;;;5034248;28;20442;-85
2024/01/08 02:00:35;;;;;;;4.23;3.93;;;;;;;;;;5043158;28;20469;-85
2024/01/08 02:03:18;;;;;;;3.97;3.20;;;;;;;;;;5054637;28;20450;-85
2024/01/08 02:05:56;;;;;;;4.17;2.63;;;;;;;;;;5016952;28;20457;-87
2024/01/08 02:08:50;;;;;;;3.10;2.80;;;;;;;;;;5034647;28;20473;-84
2024/01/08 02:11:41;;;;;;;4.00;3.60;;;;;;;;;;5046871;28;20467;-87
2024/01/08 02:14:17;;;;;;;4.60;4.20;;;;;;;;;;5031551;28;20542;-85
2024/01/08 02:17:15;;;;;;;5.33;3.73;;;;;;;;;;5035958;28;20483;-87
2024/01/08 02:20:00;;;;;;;4.70;3.17;;;;;;;;;;5000592;28;20454;-84
2024/01/08 02:23:13;;;;;;;4.00;3.60;;;;;;;;;;5051354;28;20478;-87
2024/01/08 02:26:02;;;;;;;5.00;4.20;;;;;;;;;;5036809;28;21559;-83
2024/01/08 02:28:48;;;;;;;4.00;3.60;;;;;;;;;;5047914;28;20448;-84
2024/01/08 02:31:27;;;;;;;3.70;3.10;;;;;;;;;;5034900;28;20465;-85
2024/01/08 02:34:29;;;;;;;4.80;3.37;;;;;;;;;;5018659;28;20492;-84
2024/01/08 02:37:36;;;;;;;2.90;2.60;;;;;;;;;;5029841;28;20458;-84
2024/01/08 02:40:27;;;;;;;3.60;3.30;;;;;;;;;;4999984;28;20449;-85
2024/01/08 02:43:03;;;;;;;2.73;2.53;;;;;;;;;;5035188;28;20473;-83
2024/01/08 02:45:56;;;;;;;3.37;2.63;;;;;;;;;;5001257;28;20544;-84
2024/01/08 02:48:59;;;;;;;5.10;3.40;;;;;;;;;;4992266;28;20457;-84
2024/01/08 02:51:53;;;;;;;3.60;3.10;;;;;;;;;;5004935;28;20431;-84
2024/01/08 02:54:56;;;;;;;3.03;2.83;;;;;;;;;;5001801;28;20466;-86
2024/01/08 02:58:07;;;;;;;5.43;2.57;;;;;;;;;;4994213;28;20486;-86
2024/01/08 03:00:48;;;;;;;3.87;3.23;;;;;;;;;;4989017;28;20476;-84
2024/01/08 03:03:43;;;;;;;3.50;3.07;;;;;;;;;;4986921;28;20472;-86
2024/01/08 03:06:43;;;;;;;4.90;2.70;;;;;;;;;;4987873;28;20832;-85
2024/01/08 03:09:17;;;;;;;4.57;2.93;;;;;;;;;;5003994;28;20471;-86
2024/01/08 03:11:57;;;;;;;4.10;3.57;;;;;;;;;;4987526;28;20545;-86
2024/01/08 03:17:42;;;;;;;3.40;3.10;;;;;;;;;;5000356;28;20486;-86
2024/01/08 03:20:40;;;;;;;;;;;;;;;;;;;;;
2024/01/08 03:23:56;;;;;;;;;;;;;;;;;;;;;
2024/01/08 03:27:02;;;;;;;3.63;3.33;;;;;;;;;;5040211;28;20447;-84
2024/01/08 03:33:05;;;;;;;4.50;3.67;;;;;;;;;;4993837;28;20438;-85
2024/01/08 03:36:06;;;;;;;3.40;3.10;;;;;;;;;;5045918;28;20873;-86
2024/01/08 03:38:51;;;;;;;4.70;3.37;;;;;;;;;;5043304;28;20474;-85
2024/01/08 03:44:31;;;;;;;4.33;3.20;;;;;;;;;;5045403;28;20471;-85
2024/01/08 03:47:27;;;;;;;4.70;3.10;;;;;;;;;;5022949;28;21281;-84
2024/01/08 03:50:01;;;;;;;4.97;3.73;;;;;;;;;;5027819;28;20787;-84
2024/01/08 03:55:55;;;;;;;4.93;4.00;;;;;;;;;;5046281;28;20477;-84
2024/01/08 03:58:51;;;;;;;4.93;3.50;;;;;;;;;;5022999;28;20487;-87
2024/01/08 04:01:54;;;;;;;3.77;3.47;;;;;;;;;;5046102;28;20467;-87
2024/01/08 04:05:22;;;;;;;;;;;;;;;;;;;;;
2024/01/08 04:08:19;;;;;;;4.30;3.90;;;;;;;;;;5043610;28;20570;-84
2024/01/08 04:11:25;;;;;;;3.33;3.00;;;;;;;;;;5036409;28;21114;-87
2024/01/08 04:14:21;;;;;;;3.67;3.40;;;;;;;;;;5048775;28;20575;-85
2024/01/08 04:18:31;;;;;;;;;;;;;;;;;;;;;
2024/01/08 04:20:55;;;;;;;4.73;4.30;;;;;;;;;;5041706;28;20578;-84
2024/01/08 04:24:25;;;;;;;5.90;3.87;;;;;;;;;;5053410;28;20510;-85
2024/01/08 04:27:22;;;;;;;4.27;3.87;;;;;;;;;;4969394;28;20575;-83
2024/01/08 04:30:17;;;;;;;7.50;4.03;;;;;;;;;;5035464;28;20443;-86
2024/01/08 04:33:16;;;;;;;;;;;;;;;;;;;;;
2024/01/08 04:36:17;;;;;;;5.00;4.43;;;;;;;;;;5041396;28;20571;-87
2024/01/08 04:39:13;;;;;;;7.00;4.70;;;;;;;;;;5031332;28;20436;-85
2024/01/08 04:42:01;;;;;;;7.47;4.93;;;;;;;;;;5034190;28;20547;-84
2024/01/08 04:44:50;;;;;;;5.07;4.03;;;;;;;;;;4999019;28;20468;-85
2024/01/08 04:48:01;;;;;;;6.70;4.67;;;;;;;;;;5050317;28;20467;-84
2024/01/08 04:53:31;;;;;;;5.00;4.30;;;;;;;;;;5043748;28;20444;-84
2024/01/08 04:56:23;;;;;;;5.40;4.27;;;;;;;;;;5057502;28;20523;-85
2024/01/08 04:59:09;;;;;;;4.60;4.17;;;;;;;;;;5053314;28;20461;-85
2024/01/08 05:01:43;;;;;;;4.57;4.00;;;;;;;;;;5051670;28;20454;-85
2024/01/08 05:04:35;;;;;;;6.77;5.50;;;;;;;;;;5012941;28;20430;-85
2024/01/08 05:07:07;;;;;;;6.97;5.37;;;;;;;;;;5024201;28;20536;-86
2024/01/08 05:09:51;;;;;;;7.73;5.20;;;;;;;;;;5027994;28;20459;-84
2024/01/08 05:12:19;;;;;;;9.03;5.53;;;;;;;;;;5044643;28;20839;-86
2024/01/08 05:14:59;;;;;;;7.23;4.83;;;;;;;;;;5022318;28;20503;-84
2024/01/08 05:17:51;;;;;;;6.70;4.90;;;;;;;;;;5040105;28;20563;-86
2024/01/08 05:20:48;;;;;;;6.93;5.10;;;;;;;;;;5024311;28;20488;-84
2024/01/08 05:23:44;;;;;;;5.40;4.77;;;;;;;;;;5038386;28;20444;-84
2024/01/08 05:29:17;;;;;;;8.50;5.77;;;;;;;;;;5042629;28;20867;-84
2024/01/08 05:31:56;;;;;;;8.23;6.27;;;;;;;;;;5045164;28;20513;-84
2024/01/08 05:34:26;;;;;;;5.80;4.30;;;;;;;;;;5026201;28;20484;-85
2024/01/08 05:36:58;;;;;;;6.33;5.73;;;;;;;;;;5036250;28;20558;-85
2024/01/08 05:39:38;;;;;;;9.73;6.07;;;;;;;;;;5034515;28;20449;-86
2024/01/08 05:42:15;;;;;;;6.60;5.23;;;;;;;;;;5048942;28;20887;-83
2024/01/08 05:44:57;;;;;;;8.43;6.00;;;;;;;;;;5028669;28;20475;-85
2024/01/08 05:47:52;;;;;;;;;;;;;;;;;;;;;
2024/01/08 05:50:49;;;;;;;7.73;6.00;;;;;;;;;;5039690;28;20477;-84
2024/01/08 05:53:52;;;;;;;6.20;4.93;;;;;;;;;;4971176;28;20471;-84
2024/01/08 05:56:25;;;;;;;7.90;5.47;;;;;;;;;;4980451;28;20514;-84
2024/01/08 05:59:07;;;;;;;5.70;5.10;;;;;;;;;;4986314;28;20595;-85
2024/01/08 06:01:54;;;;;;;7.43;4.80;;;;;;;;;;4984134;28;20471;-86
2024/01/08 06:04:27;;;;;;;5.93;4.90;;;;;;;;;;4968755;28;20477;-85
2024/01/08 06:07:18;;;;;;;8.50;5.13;;;;;;;;;;4983256;28;20526;-86
2024/01/08 06:10:04;;;;;;;7.10;5.67;;;;;;;;;;4984388;28;20462;-85
2024/01/08 06:12:40;;;;;;;9.37;5.43;;;;;;;;;;5030213;28;20456;-86
2024/01/08 06:15:40;;;;;;;5.73;5.03;;;;;;;;;;5006227;28;20568;-85
2024/01/08 06:18:36;;;;;;;5.83;5.00;;;;;;;;;;5025481;28;20454;-85
2024/01/08 06:21:33;;;;;;;6.33;5.20;;;;;;;;;;5030084;28;20455;-86
2024/01/08 06:27:36;;;;;;;6.40;5.80;;;;;;;;;;5032208;28;20451;-86
2024/01/08 06:30:05;;;;;;;5.80;4.37;;;;;;;;;;5050907;28;21343;-85
2024/01/08 06:33:14;;;;;;;3.90;3.30;;;;;;;;;;5033295;28;20438;-86
2024/01/08 06:39:05;;;;;;;5.53;4.80;;;;;;;;;;4999538;28;20497;-85
2024/01/08 06:41:56;;;;;;;6.43;4.60;;;;;;;;;;5022512;28;20511;-85
2024/01/08 06:45:13;;;;;;;7.10;5.30;;;;;;;;;;5045482;28;20532;-84
2024/01/08 06:48:01;;;;;;;5.47;4.07;;;;;;;;;;5037615;28;20515;-85
2024/01/08 06:50:59;;;;;;;3.93;3.53;;;;;;;;;;5037623;28;20464;-84
2024/01/08 06:54:01;;;;;;;4.33;3.93;;;;;;;;;;5013613;28;20462;-85
2024/01/08 06:56:48;;;;;;;5.97;4.37;;;;;;;;;;5030932;28;20470;-86
2024/01/08 06:59:51;;;;;;;5.63;4.50;;;;;;;;;;5045714;28;20495;-87
2024/01/08 07:02:57;;;;;;;6.40;4.50;;;;;;;;;;5051184;28;20441;-84
2024/01/08 07:06:27;;;;;;;4.60;4.13;;;;;;;;;;5025430;28;20465;-84
2024/01/08 07:09:19;;;;;;;4.73;4.23;;;;;;;;;;4984066;28;20456;-85
2024/01/08 07:12:02;;;;;;;5.70;4.37;;;;;;;;;;5051211;28;20522;-85
2024/01/08 07:15:03;;;;;;;3.80;3.33;;;;;;;;;;5032015;28;20478;-86
2024/01/08 07:17:58;;;;;;;6.03;4.37;;;;;;;;;;5027015;28;20471;-84
2024/01/08 07:24:34;;;;;;;5.10;3.67;;;;;;;;;;4988050;28;20461;-86
2024/01/08 07:27:03;;;;;;;5.50;3.80;;;;;;;;;;5027460;28;20492;-85
2024/01/08 07:29:35;;;;;;;4.47;3.47;;;;;;;;;;5031631;28;20592;-86
2024/01/08 07:32:12;;;;;;;4.43;4.03;;;;;;;;;;5035311;28;20452;-85
2024/01/08 07:34:50;;;;;;;4.30;3.70;;;;;;;;;;5044479;28;20484;-85
2024/01/08 07:37:35;;;;;;;5.10;3.63;;;;;;;;;;5044048;28;20554;-85
2024/01/08 07:40:10;;;;;;;5.17;4.37;;;;;;;;;;5031271;28;20451;-87
2024/01/08 07:43:10;;;;;;;4.30;3.90;;;;;;;;;;5031133;28;20440;-84
2024/01/08 07:45:48;;;;;;;5.47;4.43;;;;;;;;;;5022615;28;20463;-87
2024/01/08 07:48:20;;;;;;;5.13;4.63;;;;;;;;;;5026209;28;20488;-85
2024/01/08 07:51:14;;;;;;;4.17;3.77;;;;;;;;;;4946982;28;20503;-86
2024/01/08 07:54:10;;;;;;;3.57;3.27;;;;;;;;;;4962212;28;20460;-86
2024/01/08 07:56:49;;;;;;;4.20;3.90;;;;;;;;;;4945057;28;20485;-84
2024/01/08 07:59:26;;;;;;;3.90;3.07;;;;;;;;;;4941071;28;20632;-85
2024/01/08 08:30:19;;;;;;;2.90;1.90;;;;;;;;;;4901938;29;20452;-85
2024/01/08 08:33:29;;;;;;;3.13;2.73;;;;;;;;;;4929409;29;20489;-83
2024/01/08 08:36:41;;;;;;;4.37;3.43;;;;;;;;;;4942059;28;20482;-84
2024/01/08 08:43:09;;;;;;;2.53;2.27;;;;;;;;;;4891964;29;20460;-87
2024/01/08 08:49:29;;;;;;;3.47;2.80;;;;;;;;;;5080506;23;20502;-82
2024/01/08 08:55:56;;;;;;;2.60;2.40;;;;;;;;;;5045161;28;20506;-86
2024/01/08 09:02:04;;;;;;;2.93;2.20;;;;;;;;;;5023107;28;20517;-87
2024/01/08 09:04:53;;;;;;;3.33;2.80;;;;;;;;;;5035515;28;20463;-81
2024/01/08 09:07:38;;;;;;;6.00;2.80;;;;;;;;;;5033199;23;20474;-84
2024/01/08 09:10:39;;;;;;;2.97;2.60;;;;;;;;;;5058353;28;20450;-84
2024/01/08 09:13:26;;;;;;;3.00;2.50;;;;;;;;;;5004338;28;20688;-86
2024/01/08 09:16:11;;;;;;;4.30;2.70;;;;;;;;;;5037968;28;20493;-85
2024/01/08 09:18:53;;;;;;;5.57;2.87;;;;;;;;;;5054325;28;20493;-84
2024/01/08 09:21:26;;;;;;;3.93;2.77;;;;;;;;;;5039061;28;20453;-85
2024/01/08 09:27:05;;;;;;;3.40;3.10;;;;;;;;;;5044613;28;20485;-84
2024/01/08 09:30:05;;;;;;;4.80;3.40;;;;;;;;;;5042951;28;20458;-83
2024/01/08 09:33:13;;;;;;;5.37;2.87;;;;;;;;;;5045702;28;20447;-83
2024/01/08 09:36:03;;;;;;;6.30;3.17;;;;;;;;;;5045536;28;20474;-84
2024/01/08 09:39:03;;;;;;;6.07;3.53;;;;;;;;;;5036747;28;20488;-84
2024/01/08 09:41:33;;;;;;;3.70;3.13;;;;;;;;;;5043557;28;21155;-84
2024/01/08 09:44:19;;;;;;;4.30;3.27;;;;;;;;;;4993533;28;20477;-85
2024/01/08 09:47:13;;;;;;;5.93;4.60;;;;;;;;;;5054341;28;20488;-85
2024/01/08 09:49:50;;;;;;;3.77;3.23;;;;;;;;;;5053541;28;20433;-82
2024/01/08 09:52:22;;;;;;;5.10;3.70;;;;;;;;;;5045423;28;20526;-84
2024/01/08 09:55:06;;;;;;;3.67;3.33;;;;;;;;;;5046573;28;20473;-84
2024/01/08 09:57:37;;;;;;;5.73;3.67;;;;;;;;;;5042568;28;20495;-85
2024/01/08 10:00:22;;;;;;;4.80;4.30;;;;;;;;;;5045022;28;20455;-83
2024/01/08 10:02:57;;;;;;;4.53;2.80;;;;;;;;;;5045202;28;20445;-84
2024/01/08 10:05:45;;;;;;;7.73;3.40;;;;;;;;;;5040892;28;20452;-82
2024/01/08 10:08:42;;;;;;;3.80;3.37;;;;;;;;;;5047580;28;20539;-84
2024/01/08 10:11:28;;;;;;;3.63;3.23;;;;;;;;;;5044632;28;20449;-83
2024/01/08 10:14:25;;;;;;;5.33;4.00;;;;;;;;;;5030285;28;20442;-83
2024/01/08 10:16:59;;;;;;;4.03;3.60;;;;;;;;;;5054131;28;20490;-82
2024/01/08 10:19:33;;;;;;;3.77;3.47;;;;;;;;;;5048505;28;20561;-85
2024/01/08 10:22:21;;;;;;;4.90;3.10;;;;;;;;;;5044598;28;20449;-84
2024/01/08 10:25:10;;;;;;;3.53;3.20;;;;;;;;;;5034761;28;20461;-84
2024/01/08 10:27:46;;;;;;;4.33;3.20;;;;;;;;;;5044642;28;20481;-85
2024/01/08 10:30:44;;;;;;;3.23;2.93;;;;;;;;;;5031640;28;20456;-84
2024/01/08 10:33:22;;;;;;;3.73;3.40;;;;;;;;;;5039606;28;20465;-84
2024/01/08 10:35:56;;;;;;;6.30;4.83;;;;;;;;;;5037648;28;20476;-83
2024/01/08 10:38:27;;;;;;;4.90;2.93;;;;;;;;;;5046388;28;20478;-82
2024/01/08 10:41:20;;;;;;;4.10;3.40;;;;;;;;;;5038889;28;20487;-84
2024/01/08 10:43:55;;;;;;;3.60;3.00;;;;;;;;;;5042092;28;20785;-83
2024/01/08 10:46:32;;;;;;;4.30;3.13;;;;;;;;;;5028083;28;20455;-85
2024/01/08 10:49:15;;;;;;;3.57;3.20;;;;;;;;;;5034898;28;20474;-83
2024/01/08 10:51:44;;;;;;;5.20;3.43;;;;;;;;;;5038483;28;20499;-86
2024/01/08 10:54:19;;;;;;;4.90;3.10;;;;;;;;;;5046137;28;20451;-83
2024/01/08 10:56:54;;;;;;;4.13;2.57;;;;;;;;;;5029714;28;20588;-84
2024/01/08 10:59:44;;;;;;;3.53;2.70;;;;;;;;;;5046487;28;20855;-85
2024/01/08 11:02:16;;;;;;;4.43;3.43;;;;;;;;;;5023553;28;20451;-83
2024/01/08 11:04:58;;;;;;;4.90;3.33;;;;;;;;;;5025077;28;20825;-82
2024/01/08 11:07:39;;;;;;;3.77;2.90;;;;;;;;;;5027792;28;20496;-85
2024/01/08 11:10:14;;;;;;;3.60;3.20;;;;;;;;;;5027803;28;21087;-83
2024/01/08 11:12:55;;;;;;;4.00;3.00;;;;;;;;;;5026362;28;20458;-85
2024/01/08 11:15:39;;;;;;;3.90;3.40;;;;;;;;;;5026021;28;20495;-84
2024/01/08 11:18:24;;;;;;;3.87;3.20;;;;;;;;;;5030732;28;20467;-83
2024/01/08 11:21:02;;;;;;;3.47;3.17;;;;;;;;;;5058353;28;20509;-83
2024/01/08 11:23:45;;;;;;;2.80;2.30;;;;;;;;;;5053509;28;20456;-83
2024/01/08 11:26:24;;;;;;;2.77;2.57;;;;;;;;;;5045717;28;20438;-82
2024/01/08 11:29:05;;;;;;;3.10;2.63;;;;;;;;;;5044175;28;20440;-83
2024/01/08 11:31:51;;;;;;;5.50;3.10;;;;;;;;;;5056543;28;20463;-82
2024/01/08 11:34:32;;;;;;;4.10;3.30;;;;;;;;;;5053660;28;20440;-84
2024/01/08 11:37:23;;;;;;;4.10;3.23;;;;;;;;;;5041286;28;20464;-83
2024/01/08 11:40:06;;;;;;;3.60;3.10;;;;;;;;;;5036206;28;20519;-84
2024/01/08 11:42:36;;;;;;;3.33;3.03;;;;;;;;;;5058274;28;20483;-83
2024/01/08 11:45:10;;;;;;;3.03;2.20;;;;;;;;;;5050133;28;20451;-84
2024/01/08 11:47:38;;;;;;;4.67;3.30;;;;;;;;;;5044226;28;20571;-84
2024/01/08 11:50:09;;;;;;;3.40;3.10;;;;;;;;;;5037314;28;20465;-83
2024/01/08 11:52:38;;;;;;;2.80;2.23;;;;;;;;;;5047112;28;20449;-83
2024/01/08 11:55:06;;;;;;;3.67;2.70;;;;;;;;;;5032952;28;20853;-85
2024/01/08 11:57:35;;;;;;;3.90;3.30;;;;;;;;;;5044510;28;20888;-87
2024/01/08 12:00:18;;;;;;;3.80;2.67;;;;;;;;;;5026552;28;20493;-85
2024/01/08 12:06:09;;;;;;;4.73;2.47;;;;;;;;;;5039149;28;20451;-84
2024/01/08 12:08:39;;;;;;;3.00;2.57;;;;;;;;;;5033699;28;20479;-86
2024/01/08 12:11:08;;;;;;;3.93;3.37;;;;;;;;;;5031177;28;20450;-87
2024/01/08 12:13:39;;;;;;;9.97;5.00;;;;;;;;;;5031682;28;20478;-84
2024/01/08 12:16:12;;;;;;;3.00;2.27;;;;;;;;;;5050059;28;20474;-85
2024/01/08 12:19:03;;;;;;;3.80;2.60;;;;;;;;;;5025210;28;20545;-83
2024/01/08 12:21:41;;;;;;;2.37;2.17;;;;;;;;;;5051481;28;20544;-85
2024/01/08 12:24:15;;;;;;;3.90;2.70;;;;;;;;;;5042934;28;20445;-86
2024/01/08 12:26:46;;;;;;;6.40;2.00;;;;;;;;;;5045265;28;20478;-86
2024/01/08 12:29:25;;;;;;;3.73;2.07;;;;;;;;;;5061531;28;20463;-83
2024/01/08 12:31:56;;;;;;;2.97;2.67;;;;;;;;;;5037021;28;20470;-84
2024/01/08 12:34:43;;;;;;;2.93;2.40;;;;;;;;;;5052082;28;20472;-83
2024/01/08 12:37:13;;;;;;;3.27;2.23;;;;;;;;;;5038168;28;20484;-84
2024/01/08 12:39:43;;;;;;;2.77;2.53;;;;;;;;;;5025473;28;20487;-84
2024/01/08 12:42:20;;;;;;;2.13;1.93;;;;;;;;;;5046064;28;20523;-84
2024/01/08 12:44:48;;;;;;;2.87;2.50;;;;;;;;;;5035950;28;20457;-81
2024/01/08 12:47:16;;;;;;;3.37;2.80;;;;;;;;;;5049085;28;20477;-84
2024/01/08 12:49:44;;;;;;;2.87;1.80;;;;;;;;;;5042895;28;20469;-83
2024/01/08 12:52:14;;;;;;;1.83;1.73;;;;;;;;;;5049923;28;20466;-85
2024/01/08 12:54:43;;;;;;;4.30;2.90;;;;;;;;;;5029093;28;20535;-84
2024/01/08 12:57:16;;;;;;;2.93;2.20;;;;;;;;;;5041912;28;20531;-83
2024/01/08 12:59:54;;;;;;;5.83;3.47;;;;;;;;;;5043865;28;20445;-84
2024/01/08 13:02:25;;;;;;;4.20;3.00;;;;;;;;;;5032739;28;20442;-83
2024/01/08 13:04:52;;;;;;;5.43;3.20;;;;;;;;;;5044852;28;20445;-82
2024/01/08 13:07:20;;;;;;;4.93;1.90;;;;;;;;;;5047709;28;22115;-83
2024/01/08 13:09:48;;;;;;;2.80;2.50;;;;;;;;;;5044424;28;20464;-82
2024/01/08 13:12:18;;;;;;;6.40;2.70;;;;;;;;;;5045935;28;20450;-83
2024/01/08 13:14:45;;;;;;;3.77;2.67;;;;;;;;;;5045173;28;20465;-83
2024/01/08 13:17:13;;;;;;;2.70;2.37;;;;;;;;;;5040664;28;20497;-84
2024/01/08 13:19:49;;;;;;;3.97;3.23;;;;;;;;;;4995647;28;20546;-82
2024/01/08 13:22:28;;;;;;;3.40;2.43;;;;;;;;;;5021880;28;20456;-82
2024/01/08 13:25:05;;;;;;;2.97;2.43;;;;;;;;;;5024853;28;20582;-83
2024/01/08 13:27:34;;;;;;;3.00;2.70;;;;;;;;;;5016926;28;20478;-81
2024/01/08 13:30:09;;;;;;;3.30;3.00;;;;;;;;;;5023290;28;20454;-85
2024/01/08 13:32:36;;;;;;;3.40;2.37;;;;;;;;;;5040954;28;20441;-84
2024/01/08 13:35:05;;;;;;;3.13;2.60;;;;;;;;;;5029961;28;20864;-83
2024/01/08 13:37:40;;;;;;;4.03;2.37;;;;;;;;;;5032444;28;21345;-83
2024/01/08 13:40:11;;;;;;;3.10;2.80;;;;;;;;;;5028381;28;20457;-84
2024/01/08 13:42:42;;;;;;;3.77;2.70;;;;;;;;;;5026501;28;20499;-83
2024/01/08 13:45:11;;;;;;;12.40;3.37;;;;;;;;;;5032766;28;20465;-83
2024/01/08 13:47:38;;;;;;;4.77;3.17;;;;;;;;;;5044209;28;20477;-83
2024/01/08 13:50:07;;;;;;;4.93;3.53;;;;;;;;;;5045679;28;20579;-85
2024/01/08 13:52:34;;;;;;;3.30;2.90;;;;;;;;;;5042239;28;20825;-82
2024/01/08 13:55:01;;;;;;;2.90;2.60;;;;;;;;;;5034179;28;20457;-84
2024/01/08 13:57:29;;;;;;;3.40;2.63;;;;;;;;;;5048755;28;20489;-85
2024/01/08 13:59:56;;;;;;;3.60;2.50;;;;;;;;;;5047890;28;20458;-84
2024/01/08 14:02:25;;;;;;;3.77;2.53;;;;;;;;;;5033406;28;21399;-83
2024/01/08 14:04:54;;;;;;;3.03;2.70;;;;;;;;;;5041994;28;21386;-84
2024/01/08 14:07:23;;;;;;;3.80;2.43;;;;;;;;;;5029467;28;20478;-84
2024/01/08 14:09:50;;;;;;;4.60;3.37;;;;;;;;;;5028971;28;20456;-85
2024/01/08 14:12:17;;;;;;;3.57;2.90;;;;;;;;;;5037109;28;20538;-83
2024/01/08 14:14:44;;;;;;;3.10;2.87;;;;;;;;;;5034166;28;20420;-83
2024/01/08 14:17:19;;;;;;;5.80;2.60;;;;;;;;;;5037022;28;20481;-83
2024/01/08 14:19:46;;;;;;;4.83;3.30;;;;;;;;;;5047031;28;20452;-83
2024/01/08 14:22:16;;;;;;;3.40;2.70;;;;;;;;;;5044364;28;20533;-85
2024/01/08 14:24:46;;;;;;;3.13;2.80;;;;;;;;;;5026147;28;20492;-81
2024/01/08 14:27:14;;;;;;;3.73;2.40;;;;;;;;;;5033539;28;20510;-81
2024/01/08 14:29:41;;;;;;;5.90;2.80;;;;;;;;;;5029728;28;20469;-83
2024/01/08 14:32:10;;;;;;;3.00;2.50;;;;;;;;;;5021089;28;20528;-83
2024/01/08 14:34:37;;;;;;;4.77;3.30;;;;;;;;;;5047893;28;20454;-82
2024/01/08 14:37:46;;;;;;;4.03;2.67;;;;;;;;;;5053254;28;20490;-81
2024/01/08 14:44:14;;;;;;;6.83;4.50;;;;;;;;;;5043369;28;20471;-82
2024/01/08 14:47:15;;;;;;;5.30;2.90;;;;;;;;;;4936688;28;20476;-82
2024/01/08 14:50:21;;;;;;;2.73;2.50;;;;;;;;;;4967692;28;20544;-82
2024/01/08 15:15:54;;;;;;;5.20;2.97;;;;;;;;;;5041553;28;20515;-83
2024/01/08 15:18:25;;;;;;;3.50;3.20;;;;;;;;;;5044878;28;20457;-84
2024/01/08 15:20:55;;;;;;;4.40;3.27;;;;;;;;;;5042903;28;20517;-83
2024/01/08 15:23:27;;;;;;;3.07;2.80;;;;;;;;;;5024792;28;20450;-81
2024/01/08 15:26:00;;;;;;;2.80;2.57;;;;;;;;;;5042549;28;20493;-82
2024/01/08 15:28:30;;;;;;;3.43;3.13;;;;;;;;;;5038514;28;20526;-84
2024/01/08 15:31:01;;;;;;;4.00;2.77;;;;;;;;;;5038079;28;20550;-84
2024/01/08 15:33:34;;;;;;;3.30;3.00;;;;;;;;;;5024305;28;20449;-83
2024/01/08 15:36:03;;;;;;;4.00;2.90;;;;;;;;;;5045236;28;20537;-82
2024/01/08 15:38:34;;;;;;;3.43;2.60;;;;;;;;;;5028573;28;20841;-86
2024/01/08 15:41:01;;;;;;;2.80;2.60;;;;;;;;;;5026222;28;20458;-85
2024/01/08 15:43:36;;;;;;;4.30;3.33;;;;;;;;;;5046547;28;20460;-83
2024/01/08 15:46:09;;;;;;;3.60;2.60;;;;;;;;;;5025635;28;20439;-84
2024/01/08 15:48:54;;;;;;;3.77;3.00;;;;;;;;;;5043091;28;20487;-82
2024/01/08 15:58:26;;;;;;;4.87;3.00;;;;;;;;;;4998801;28;20461;-82
2024/01/08 16:12:06;;;;;;;;;;;;;;;;;;;;;
2024/01/08 16:15:12;;;;;;;3.93;3.10;;;;;;;;;;4858910;29;21206;-82
2024/01/08 16:18:13;;;;;;;4.80;3.70;;;;;;;;;;4849979;29;20500;-85
2024/01/08 16:32:00;;;;;;;4.27;3.43;;;;;;;;;;4883672;29;21032;-82
2024/01/08 16:35:05;;;;;;;5.10;3.40;;;;;;;;;;4873577;29;20517;-84
2024/01/08 16:37:42;;;;;;;5.40;3.20;;;;;;;;;;4884796;29;21170;-84
2024/01/08 16:40:10;;;;;;;5.57;2.87;;;;;;;;;;4885423;29;20452;-83
2024/01/08 16:42:43;;;;;;;4.00;3.07;;;;;;;;;;4911659;29;21428;-83
2024/01/08 16:45:15;;;;;;;4.70;3.17;;;;;;;;;;4914629;29;20534;-82
2024/01/08 16:47:42;;;;;;;5.47;3.20;;;;;;;;;;4912937;29;20489;-82
2024/01/08 16:50:17;;;;;;;4.87;3.30;;;;;;;;;;4938414;28;20463;-82
2024/01/08 16:52:47;;;;;;;3.70;3.37;;;;;;;;;;4990944;28;20485;-82
2024/01/08 16:55:17;;;;;;;3.90;2.53;;;;;;;;;;4977956;28;20463;-83
2024/01/08 16:57:50;;;;;;;4.40;2.90;;;;;;;;;;4999952;28;21114;-83
2024/01/08 17:00:21;;;;;;;4.57;3.37;;;;;;;;;;5018876;28;20465;-84
2024/01/08 17:02:52;;;;;;;4.10;3.70;;;;;;;;;;5039995;28;20451;-83
2024/01/08 17:05:20;;;;;;;4.27;3.10;;;;;;;;;;5031031;28;20459;-82
2024/01/08 17:07:55;;;;;;;4.30;3.73;;;;;;;;;;5016447;28;20546;-84
2024/01/08 17:10:25;;;;;;;5.50;3.53;;;;;;;;;;5035205;28;21021;-83
2024/01/08 17:12:54;;;;;;;5.03;3.50;;;;;;;;;;5033349;28;20571;-84
2024/01/08 17:15:24;;;;;;;4.80;3.67;;;;;;;;;;5041782;28;20465;-85
2024/01/08 17:17:56;;;;;;;5.27;3.40;;;;;;;;;;5037245;28;20557;-81
2024/01/08 17:20:44;;;;;;;6.80;3.97;;;;;;;;;;5043236;28;20550;-85
2024/01/08 17:23:14;;;;;;;7.97;4.63;;;;;;;;;;5026919;28;20476;-83
2024/01/08 17:25:44;;;;;;;4.37;3.50;;;;;;;;;;5043829;28;20461;-83
2024/01/08 17:28:11;;;;;;;5.20;4.20;;;;;;;;;;5039731;28;20477;-83
2024/01/08 17:30:45;;;;;;;4.87;3.17;;;;;;;;;;5029020;28;20458;-82
2024/01/08 17:33:12;;;;;;;8.37;4.47;;;;;;;;;;5030222;28;20548;-83
2024/01/08 17:35:39;;;;;;;4.53;3.40;;;;;;;;;;5050729;28;20465;-83
2024/01/08 17:38:07;;;;;;;5.80;3.70;;;;;;;;;;5029329;28;20505;-84
2024/01/08 17:43:25;;;;;;;5.33;4.13;;;;;;;;;;5039836;28;20537;-83
2024/01/08 17:46:33;;;;;;;5.00;3.97;;;;;;;;;;5043204;28;20457;-84
2024/01/08 17:49:15;;;;;;;5.63;4.47;;;;;;;;;;5046916;28;20460;-83
2024/01/08 17:51:45;;;;;;;4.43;3.90;;;;;;;;;;5042987;28;21030;-82
2024/01/08 17:54:13;;;;;;;6.13;3.70;;;;;;;;;;5044745;28;21750;-84
2024/01/08 17:56:40;;;;;;;6.90;4.33;;;;;;;;;;5022717;28;21014;-82
2024/01/08 17:59:17;;;;;;;5.67;4.10;;;;;;;;;;5051018;28;20439;-83
2024/01/08 18:01:47;;;;;;;8.43;4.17;;;;;;;;;;5061768;28;20438;-81
2024/01/08 18:04:20;;;;;;;6.60;4.33;;;;;;;;;;5064511;28;20497;-83
2024/01/08 18:07:04;;;;;;;6.60;4.30;;;;;;;;;;5047053;28;20455;-81
2024/01/08 18:09:40;;;;;;;5.53;4.13;;;;;;;;;;5046870;28;20465;-82
2024/01/08 18:12:11;;;;;;;10.80;7.10;;;;;;;;;;5050435;28;20452;-84
2024/01/08 18:14:59;;;;;;;7.23;3.93;;;;;;;;;;5037603;28;20459;-83
2024/01/08 18:17:40;;;;;;;5.60;3.40;;;;;;;;;;5050695;28;20499;-83
2024/01/08 18:24:40;;;;;;;;;;;;;;;;;;;;;
2024/01/08 18:34:42;;;;;;;6.07;4.60;;;;;;;;;;4953377;28;20455;-83
2024/01/08 18:37:27;;;;;;;9.67;5.13;;;;;;;;;;4948984;28;20498;-85
2024/01/08 18:39:58;;;;;;;7.73;3.87;;;;;;;;;;4973181;28;20451;-83
2024/01/08 18:42:26;;;;;;;5.93;4.00;;;;;;;;;;5005592;28;20455;-83
2024/01/08 18:44:54;;;;;;;5.37;4.33;;;;;;;;;;5005162;28;20479;-83
2024/01/08 18:47:23;;;;;;;5.90;4.33;;;;;;;;;;5005536;28;20477;-85
2024/01/08 18:50:00;;;;;;;7.03;4.10;;;;;;;;;;4989362;28;20464;-80
2024/01/08 18:52:30;;;;;;;5.23;3.47;;;;;;;;;;5005632;28;20999;-84
2024/01/08 18:55:18;;;;;;;6.40;4.50;;;;;;;;;;4984751;28;20442;-84
2024/01/08 18:57:52;;;;;;;7.60;5.10;;;;;;;;;;5032050;28;20481;-84
2024/01/08 19:00:29;;;;;;;8.33;4.17;;;;;;;;;;5047164;28;20439;-84
2024/01/08 19:03:02;;;;;;;9.77;4.53;;;;;;;;;;5037276;28;20942;-84
2024/01/08 19:05:45;;;;;;;6.20;3.90;;;;;;;;;;5033793;28;20450;-84
2024/01/08 19:08:16;;;;;;;6.80;4.53;;;;;;;;;;5045160;28;22231;-82
2024/01/08 19:10:52;;;;;;;5.93;4.00;;;;;;;;;;5051342;28;20433;-83
2024/01/08 19:13:25;;;;;;;4.60;3.10;;;;;;;;;;5041697;28;20434;-82
2024/01/08 19:15:52;;;;;;;4.03;3.63;;;;;;;;;;5037166;28;20467;-83
2024/01/08 19:18:19;;;;;;;7.33;5.43;;;;;;;;;;5053219;28;20479;-85